Time;durP1;ratioP1;P1;durP2;ratioP2;P2;SDS_P1;SDS_P2;PMS_P1;PMS_P2;Temp;Humidity;BMP_temperature;BMP_pressure;BME280_temperature;BME280_humidity;BME280_pressure;Samples;Min_cycle;Max_cycle;Signal;HPM_P1;HPM_P2
2022/03/10 00:01:37;;;;;;;41.67;24.75;;;;;;;5.34;54.38;102241.09;5019339;28;20139;-69
2022/03/10 00:04:03;;;;;;;44.47;24.67;;;;;;;5.31;53.66;102251.63;5028790;28;20026;-69
2022/03/10 00:06:28;;;;;;;43.50;25.35;;;;;;;5.25;55.53;102251.81;5029149;28;20029;-69
2022/03/10 00:08:54;;;;;;;41.88;25.02;;;;;;;5.21;55.14;102247.59;5028171;28;20067;-69
2022/03/10 00:11:19;;;;;;;39.83;24.70;;;;;;;5.14;55.37;102253.84;5028932;28;20044;-69
2022/03/10 00:13:46;;;;;;;45.72;25.67;;;;;;;5.09;54.60;102255.75;5023391;28;20034;-69
2022/03/10 00:16:11;;;;;;;41.38;25.52;;;;;;;5.03;55.28;102260.25;5024766;28;20452;-69
2022/03/10 00:18:36;;;;;;;41.22;25.08;;;;;;;5.00;55.84;102262.06;5012429;28;20034;-70
2022/03/10 00:21:02;;;;;;;41.67;25.92;;;;;;;4.93;55.26;102260.53;5031204;28;20029;-69
2022/03/10 00:23:27;;;;;;;41.63;25.48;;;;;;;4.81;55.85;102261.75;5031109;28;20070;-69
2022/03/10 00:25:54;;;;;;;42.42;25.08;;;;;;;4.70;56.59;102258.53;5031311;28;20025;-69
2022/03/10 00:28:20;;;;;;;45.35;25.33;;;;;;;4.60;56.41;102249.28;5013621;28;20028;-69
2022/03/10 00:30:45;;;;;;;41.95;26.42;;;;;;;4.57;56.42;102252.81;5008595;28;20442;-69
2022/03/10 00:33:10;;;;;;;48.25;26.02;;;;;;;4.52;57.48;102253.84;5011101;28;20083;-69
2022/03/10 00:35:39;;;;;;;40.35;26.50;;;;;;;4.50;57.77;102258.25;5010072;28;20045;-69
2022/03/10 00:38:04;;;;;;;42.28;25.45;;;;;;;4.48;57.00;102258.28;5010550;28;20030;-69
2022/03/10 00:40:30;;;;;;;42.45;26.08;;;;;;;4.47;57.41;102256.56;5011277;28;20048;-69
2022/03/10 00:42:56;;;;;;;45.10;26.60;;;;;;;4.45;57.79;102257.50;5009158;28;20025;-69
2022/03/10 00:45:21;;;;;;;39.95;25.50;;;;;;;4.44;56.96;102258.41;5011131;28;20111;-69
2022/03/10 00:47:47;;;;;;;45.13;26.45;;;;;;;4.43;57.46;102252.34;4993547;28;20041;-69
2022/03/10 00:50:13;;;;;;;46.40;25.85;;;;;;;4.43;57.72;102254.94;5006128;28;20561;-69
2022/03/10 00:52:42;;;;;;;48.22;27.15;;;;;;;4.40;57.22;102255.88;4997423;28;20029;-69
2022/03/10 00:55:10;;;;;;;38.83;25.10;;;;;;;4.43;57.91;102259.28;5011262;28;20550;-69
2022/03/10 00:57:36;;;;;;;42.47;25.63;;;;;;;4.41;57.48;102254.13;4994090;28;20032;-69
2022/03/10 01:00:05;;;;;;;43.60;25.23;;;;;;;4.41;57.62;102259.34;5009613;28;20482;-69
2022/03/10 01:02:31;;;;;;;41.40;25.42;;;;;;;4.40;57.96;102263.69;5012007;28;20057;-69
2022/03/10 01:04:56;;;;;;;42.53;26.65;;;;;;;4.42;57.96;102262.78;5010807;28;20088;-69
2022/03/10 01:07:22;;;;;;;46.45;26.60;;;;;;;4.44;58.03;102261.00;5010359;28;20421;-69
2022/03/10 01:09:47;;;;;;;44.58;26.73;;;;;;;4.43;59.00;102256.69;5011428;28;20038;-69
2022/03/10 01:12:13;;;;;;;47.55;27.20;;;;;;;4.44;58.89;102259.25;5011413;28;20229;-69
2022/03/10 01:14:38;;;;;;;69.22;38.38;;;;;;;4.44;58.67;102261.00;5022307;28;20091;-69
2022/03/10 01:17:04;;;;;;;45.50;27.58;;;;;;;4.42;58.76;102265.41;5008370;28;20046;-69
2022/03/10 01:19:29;;;;;;;39.90;25.92;;;;;;;4.40;59.06;102263.69;5024599;28;20561;-69
2022/03/10 01:21:55;;;;;;;39.00;25.15;;;;;;;4.41;59.05;102267.16;5029988;28;20108;-69
2022/03/10 01:24:20;;;;;;;46.30;25.80;;;;;;;4.38;58.99;102257.63;5029641;28;20410;-69
2022/03/10 01:26:46;;;;;;;42.70;26.70;;;;;;;4.37;58.49;102255.91;5024570;28;20108;-69
2022/03/10 01:29:13;;;;;;;41.70;26.20;;;;;;;4.37;59.11;102255.91;5010367;28;20018;-69
2022/03/10 01:31:38;;;;;;;42.47;26.58;;;;;;;4.34;59.30;102258.59;5006190;28;20076;-69
2022/03/10 01:34:04;;;;;;;44.15;27.33;;;;;;;4.33;59.73;102254.28;5009436;28;20022;-69
2022/03/10 01:36:29;;;;;;;46.10;27.08;;;;;;;4.32;59.59;102262.16;5010470;28;20446;-69
2022/03/10 01:38:54;;;;;;;42.88;25.80;;;;;;;4.29;59.51;102257.88;4992896;28;20081;-69
2022/03/10 01:41:20;;;;;;;43.70;26.73;;;;;;;4.27;59.95;102254.44;4989934;28;20105;-69
2022/03/10 01:44:08;;;;;;;49.58;26.90;;;;;;;4.27;59.43;102259.66;4989190;28;20029;-69
2022/03/10 01:46:34;;;;;;;45.33;27.08;;;;;;;4.24;59.42;102253.69;5009410;28;20050;-69
2022/03/10 01:49:03;;;;;;;43.63;26.95;;;;;;;4.23;59.49;102258.03;5010505;28;20096;-71
2022/03/10 01:51:29;;;;;;;45.63;27.65;;;;;;;4.20;59.82;102255.50;5010681;28;20040;-69
2022/03/10 01:53:55;;;;;;;40.90;26.33;;;;;;;4.21;59.96;102252.00;5004156;28;20021;-69
2022/03/10 01:56:22;;;;;;;44.65;26.60;;;;;;;4.18;60.85;102259.91;5010423;28;20549;-69
2022/03/10 01:58:49;;;;;;;41.97;26.85;;;;;;;4.16;60.86;102248.66;5012742;28;20065;-69
2022/03/10 02:01:16;;;;;;;41.08;26.55;;;;;;;4.15;60.24;102252.16;5001652;28;20037;-69
2022/03/10 02:03:42;;;;;;;43.67;26.35;;;;;;;4.16;60.63;102250.41;5028923;28;20425;-69
2022/03/10 02:06:08;;;;;;;42.53;26.60;;;;;;;4.14;61.03;102249.59;5013121;28;20032;-69
2022/03/10 02:11:19;;;;;;;43.90;26.98;;;;;;;4.11;61.23;102242.72;5002746;28;20406;-69
2022/03/10 02:13:45;;;;;;;42.75;27.38;;;;;;;4.08;61.76;102248.00;4990926;28;20093;-69
2022/03/10 02:18:58;;;;;;;42.28;26.95;;;;;;;4.02;60.57;102237.75;4990467;28;20557;-69
2022/03/10 02:21:24;;;;;;;45.42;26.50;;;;;;;4.01;60.75;102241.25;4989940;28;20030;-70
2022/03/10 02:23:49;;;;;;;42.65;27.73;;;;;;;3.99;61.18;102235.19;4990475;28;20482;-69
2022/03/10 02:26:15;;;;;;;42.53;26.50;;;;;;;3.97;61.03;102242.19;4988183;28;20022;-69
2022/03/10 02:28:42;;;;;;;42.85;26.33;;;;;;;3.93;61.73;102244.00;4999675;28;20038;-69
2022/03/10 02:31:07;;;;;;;45.22;26.33;;;;;;;3.89;61.61;102241.50;5017290;28;20571;-69
2022/03/10 02:33:33;;;;;;;43.70;26.77;;;;;;;3.86;61.90;102246.78;5009397;28;20030;-71
2022/03/10 02:35:58;;;;;;;46.20;29.00;;;;;;;3.79;62.44;102243.47;5024945;28;20057;-69
2022/03/10 02:38:24;;;;;;;43.65;27.75;;;;;;;3.74;62.38;102245.34;5028738;28;20482;-69
2022/03/10 02:40:50;;;;;;;40.22;27.00;;;;;;;3.68;62.27;102242.88;5027459;28;20028;-69
2022/03/10 02:43:17;;;;;;;42.03;27.10;;;;;;;3.63;62.54;102244.72;5026452;28;20516;-69
2022/03/10 02:45:43;;;;;;;43.90;27.73;;;;;;;3.56;63.16;102256.16;5009049;28;20525;-69
2022/03/10 02:48:09;;;;;;;43.25;26.77;;;;;;;3.51;62.87;102244.97;5020687;28;20105;-69
2022/03/10 02:50:34;;;;;;;44.58;27.88;;;;;;;3.48;62.98;102245.91;5008945;28;20398;-69
2022/03/10 02:52:59;;;;;;;40.25;26.75;;;;;;;3.47;63.45;102254.59;5007535;28;20021;-69
2022/03/10 02:55:25;;;;;;;45.13;27.50;;;;;;;3.43;63.38;102247.75;5009197;28;20030;-69
2022/03/10 02:57:50;;;;;;;42.95;27.58;;;;;;;3.40;63.71;102245.22;5007019;28;20034;-69
2022/03/10 03:00:18;;;;;;;41.88;27.35;;;;;;;3.36;63.33;102238.38;5006985;28;20038;-69
2022/03/10 03:02:43;;;;;;;42.40;27.15;;;;;;;3.33;63.30;102247.09;4991632;28;20034;-69
2022/03/10 03:05:12;;;;;;;43.03;26.63;;;;;;;3.31;64.27;102248.03;4992209;28;20025;-69
2022/03/10 03:07:37;;;;;;;42.72;27.13;;;;;;;3.27;64.27;102252.44;5008994;28;20116;-69
2022/03/10 03:10:03;;;;;;;44.33;27.60;;;;;;;3.25;64.55;102246.44;5007625;28;20153;-69
2022/03/10 03:12:28;;;;;;;43.75;28.00;;;;;;;3.23;65.07;102245.59;5005441;28;20017;-69
2022/03/10 03:14:54;;;;;;;43.03;28.02;;;;;;;3.22;64.28;102243.03;5008212;28;20045;-69
2022/03/10 03:17:20;;;;;;;44.42;28.08;;;;;;;3.18;64.63;102247.41;5008320;28;20132;-69
2022/03/10 03:19:45;;;;;;;42.08;27.42;;;;;;;3.12;64.72;102251.00;5009007;28;20111;-69
2022/03/10 03:22:10;;;;;;;43.38;28.23;;;;;;;3.11;64.66;102258.84;5009190;28;20033;-69
2022/03/10 03:24:39;;;;;;;45.80;28.77;;;;;;;3.05;65.05;102261.56;5009750;28;20343;-69
2022/03/10 03:27:04;;;;;;;42.53;28.25;;;;;;;3.02;65.06;102264.22;5003667;28;20023;-69
2022/03/10 03:29:29;;;;;;;42.95;27.88;;;;;;;2.99;65.42;102267.75;4997379;28;20093;-69
2022/03/10 03:31:55;;;;;;;41.88;28.65;;;;;;;2.95;65.72;102263.50;5019252;28;20112;-69
2022/03/10 03:34:20;;;;;;;46.30;28.50;;;;;;;2.91;65.87;102269.66;5009028;28;20026;-69
2022/03/10 03:36:46;;;;;;;44.47;28.40;;;;;;;2.88;65.33;102269.69;5017525;28;20076;-69
2022/03/10 03:39:13;;;;;;;45.35;28.10;;;;;;;2.83;64.61;102272.41;5026230;28;20105;-69
2022/03/10 03:41:39;;;;;;;44.15;28.38;;;;;;;2.76;65.44;102260.38;5026868;28;20067;-69
2022/03/10 03:44:06;;;;;;;44.55;27.95;;;;;;;2.75;65.06;102256.06;5019855;28;20026;-69
2022/03/10 03:46:32;;;;;;;46.03;28.30;;;;;;;2.74;66.47;102258.69;4991066;28;20026;-69
2022/03/10 03:48:57;;;;;;;43.08;28.00;;;;;;;2.72;65.53;102263.91;4992350;28;20520;-68
2022/03/10 03:51:23;;;;;;;44.83;28.00;;;;;;;2.70;66.61;102259.63;4992665;28;20109;-69
2022/03/10 03:53:49;;;;;;;41.75;28.13;;;;;;;2.65;66.74;102277.91;5006272;28;20036;-69
2022/03/10 03:56:14;;;;;;;43.45;28.90;;;;;;;2.60;66.86;102278.88;5010677;28;20083;-69
2022/03/10 03:58:40;;;;;;;45.58;28.63;;;;;;;2.54;66.69;102281.59;5011822;28;20413;-69
2022/03/10 04:01:05;;;;;;;43.35;28.27;;;;;;;2.47;66.48;102279.09;5009854;28;20037;-69
2022/03/10 04:03:31;;;;;;;47.20;28.60;;;;;;;2.40;66.13;102281.81;5012183;28;20108;-69
2022/03/10 04:05:56;;;;;;;46.90;28.27;;;;;;;2.34;66.96;102285.38;4994507;28;20266;-69
2022/03/10 04:08:22;;;;;;;47.08;28.63;;;;;;;2.29;67.30;102282.00;5011380;28;20709;-69
2022/03/10 04:10:48;;;;;;;48.17;29.52;;;;;;;2.26;67.25;102284.66;5010819;28;20053;-69
2022/03/10 04:13:13;;;;;;;43.22;28.38;;;;;;;2.22;67.00;102284.72;5009471;28;20057;-69
2022/03/10 04:15:38;;;;;;;43.58;28.92;;;;;;;2.18;67.02;102291.72;5010227;28;20064;-69
2022/03/10 04:18:04;;;;;;;46.35;28.40;;;;;;;2.13;66.92;102293.53;5012326;28;20439;-69
2022/03/10 04:20:29;;;;;;;45.28;28.52;;;;;;;2.08;67.44;102292.75;5012670;28;20534;-68
2022/03/10 04:22:55;;;;;;;43.22;27.88;;;;;;;2.02;68.17;102293.69;5011175;28;20044;-69
2022/03/10 04:25:20;;;;;;;43.58;28.98;;;;;;;1.98;68.16;102291.16;5012443;28;20025;-69
2022/03/10 04:27:46;;;;;;;47.15;28.35;;;;;;;1.93;68.03;102295.56;5010744;28;20113;-69
2022/03/10 04:30:12;;;;;;;44.47;28.27;;;;;;;1.86;68.24;102290.47;5017481;28;20079;-69
2022/03/10 04:32:42;;;;;;;46.85;29.08;;;;;;;1.82;68.61;102299.16;5017790;28;20634;-69
2022/03/10 04:35:09;;;;;;;45.28;27.90;;;;;;;1.78;68.64;102289.72;5011315;28;20792;-69
2022/03/10 04:37:34;;;;;;;45.65;27.83;;;;;;;1.74;68.45;102287.19;5031383;28;20033;-69
2022/03/10 04:39:59;;;;;;;44.58;29.40;;;;;;;1.70;68.68;102288.97;5029263;28;20048;-69
2022/03/10 04:42:25;;;;;;;44.67;29.20;;;;;;;1.68;68.76;102288.13;5030369;28;20091;-69
2022/03/10 04:44:50;;;;;;;46.67;29.55;;;;;;;1.66;69.34;102284.72;5005529;28;20145;-69
2022/03/10 04:47:15;;;;;;;47.10;29.00;;;;;;;1.68;69.77;102290.72;4991602;28;20022;-69
2022/03/10 04:49:41;;;;;;;52.08;29.45;;;;;;;1.69;69.52;102286.41;5030070;28;20127;-69
2022/03/10 04:52:06;;;;;;;48.75;29.70;;;;;;;1.68;69.46;102287.28;5029771;28;20025;-69
2022/03/10 04:54:31;;;;;;;46.90;29.23;;;;;;;1.66;69.01;102291.63;5011069;28;20529;-69
2022/03/10 04:56:56;;;;;;;44.28;28.90;;;;;;;1.63;68.89;102291.69;5010059;28;20040;-69
2022/03/10 04:59:22;;;;;;;44.33;28.38;;;;;;;1.59;69.08;102285.66;5001933;28;20790;-69
2022/03/10 05:01:47;;;;;;;44.47;28.48;;;;;;;1.55;69.45;102284.84;5002435;28;20260;-69
2022/03/10 05:04:12;;;;;;;48.33;27.85;;;;;;;1.50;69.45;102289.22;5008241;28;20022;-69
2022/03/10 05:06:38;;;;;;;46.00;27.95;;;;;;;1.46;69.92;102294.47;5009924;28;20570;-69
2022/03/10 05:09:03;;;;;;;45.55;27.88;;;;;;;1.43;69.76;102290.19;5010036;28;20172;-69
2022/03/10 05:11:28;;;;;;;43.97;27.15;;;;;;;1.40;70.11;102298.00;5011135;28;20026;-69
2022/03/10 05:13:54;;;;;;;44.55;27.70;;;;;;;1.39;70.31;102292.84;5010499;28;20351;-68
2022/03/10 05:16:19;;;;;;;45.63;28.98;;;;;;;1.34;70.40;102294.66;5011287;28;20040;-69
2022/03/10 05:18:45;;;;;;;44.70;28.50;;;;;;;1.29;69.77;102302.47;5010635;28;20026;-69
2022/03/10 05:21:10;;;;;;;47.10;28.85;;;;;;;1.23;70.26;102298.22;5011205;28;20429;-69
2022/03/10 05:23:36;;;;;;;46.05;29.02;;;;;;;1.20;70.49;102297.38;5011390;28;20029;-69
2022/03/10 05:26:02;;;;;;;51.13;29.20;;;;;;;1.20;71.17;102305.16;5010179;28;20164;-69
2022/03/10 05:28:27;;;;;;;46.00;27.98;;;;;;;1.18;70.75;102304.31;5008163;28;20117;-69
2022/03/10 05:30:52;;;;;;;48.13;29.85;;;;;;;1.13;70.77;102306.97;4990764;28;20034;-69
2022/03/10 05:33:17;;;;;;;45.08;27.58;;;;;;;1.08;70.74;102300.97;4990601;28;20030;-69
2022/03/10 05:35:43;;;;;;;46.05;28.55;;;;;;;1.04;71.12;102295.84;4989499;28;20054;-69
2022/03/10 05:38:08;;;;;;;47.13;28.15;;;;;;;1.01;70.64;102298.47;4990199;28;20026;-68
2022/03/10 05:40:34;;;;;;;47.00;29.58;;;;;;;0.98;71.31;102294.19;4989895;28;20030;-68
2022/03/10 05:42:59;;;;;;;45.55;29.35;;;;;;;0.94;70.96;102302.88;4990445;28;20022;-69
2022/03/10 05:45:25;;;;;;;47.78;28.33;;;;;;;0.95;71.58;102302.00;5006425;28;20026;-69
2022/03/10 05:47:52;;;;;;;48.65;28.85;;;;;;;0.93;71.22;102299.44;4994540;28;20124;-69
2022/03/10 05:50:19;;;;;;;44.50;28.08;;;;;;;0.93;71.30;102298.56;4990162;28;20112;-71
2022/03/10 05:52:45;;;;;;;44.63;29.02;;;;;;;0.95;71.15;102302.00;4993767;28;20153;-71
2022/03/10 05:55:14;;;;;;;45.22;28.08;;;;;;;0.97;72.04;102304.56;4990041;28;20026;-71
2022/03/10 05:57:40;;;;;;;47.58;29.17;;;;;;;0.97;71.83;102300.25;4989066;28;20042;-68
2022/03/10 06:00:07;;;;;;;43.67;28.45;;;;;;;0.99;72.13;102298.50;4988088;28;20058;-69
2022/03/10 06:02:32;;;;;;;48.25;27.88;;;;;;;1.03;72.21;102295.00;5008448;28;20505;-69
2022/03/10 06:05:01;;;;;;;47.03;28.38;;;;;;;1.05;71.40;102293.25;5009364;28;20014;-69
2022/03/10 06:07:27;;;;;;;51.35;27.80;;;;;;;1.09;71.35;102294.94;5009296;28;20026;-69
2022/03/10 06:09:55;;;;;;;46.50;27.88;;;;;;;1.11;70.66;102295.75;5009463;28;20056;-69
2022/03/10 06:12:21;;;;;;;49.10;28.27;;;;;;;1.14;71.29;102297.47;5009925;28;20234;-69
2022/03/10 06:14:47;;;;;;;50.90;28.67;;;;;;;1.17;70.83;102292.22;5008815;28;20034;-69
2022/03/10 06:17:12;;;;;;;45.22;26.27;;;;;;;1.22;70.58;102291.34;5007757;28;21451;-69
2022/03/10 06:19:38;;;;;;;53.72;27.60;;;;;;;1.26;70.67;102294.75;5007927;28;20500;-69
2022/03/10 06:22:03;;;;;;;44.50;26.90;;;;;;;1.29;70.31;102291.25;5008636;28;20032;-69
2022/03/10 06:24:28;;;;;;;45.15;27.65;;;;;;;1.33;70.87;102301.56;5009424;28;20028;-68
2022/03/10 06:26:54;;;;;;;46.72;26.77;;;;;;;1.36;70.16;102300.66;5009244;28;20026;-69
2022/03/10 06:29:19;;;;;;;49.47;27.40;;;;;;;1.38;69.71;102306.69;5008757;28;20025;-69
2022/03/10 06:31:44;;;;;;;43.85;26.70;;;;;;;1.41;70.39;102306.66;5007988;28;20142;-69
2022/03/10 06:34:10;;;;;;;43.20;26.92;;;;;;;1.43;69.67;102307.47;5003109;28;20547;-69
2022/03/10 06:36:35;;;;;;;46.75;26.05;;;;;;;1.45;69.60;102304.00;5008021;28;20041;-69
2022/03/10 06:39:01;;;;;;;40.90;26.55;;;;;;;1.48;69.86;102305.69;5005972;28;20017;-69
2022/03/10 06:41:26;;;;;;;46.65;27.30;;;;;;;1.51;69.72;102310.84;5008607;28;20029;-69
2022/03/10 06:43:52;;;;;;;43.95;26.27;;;;;;;1.52;69.84;102309.97;5006996;28;20026;-69
2022/03/10 06:46:17;;;;;;;49.22;27.00;;;;;;;1.55;69.72;102307.31;5007112;28;20026;-69
2022/03/10 06:48:42;;;;;;;47.50;27.25;;;;;;;1.57;69.57;102302.97;5005471;28;20124;-69
2022/03/10 06:51:08;;;;;;;43.00;26.80;;;;;;;1.60;69.27;102310.72;5000813;28;20089;-69
2022/03/10 06:53:33;;;;;;;45.13;26.10;;;;;;;1.63;69.69;102318.47;5006259;28;20363;-70
2022/03/10 06:55:58;;;;;;;47.40;26.80;;;;;;;1.67;68.67;102312.38;5001156;28;20458;-69
2022/03/10 06:58:24;;;;;;;46.10;26.88;;;;;;;1.72;68.75;102320.94;5003541;28;20080;-70
2022/03/10 07:00:49;;;;;;;42.75;25.83;;;;;;;1.76;68.66;102317.41;5002874;28;20038;-69
2022/03/10 07:03:15;;;;;;;50.83;27.98;;;;;;;1.81;68.78;102323.41;5000964;28;20386;-69
2022/03/10 07:05:40;;;;;;;46.03;26.42;;;;;;;1.87;67.93;102323.31;5003462;28;20022;-69
2022/03/10 07:08:06;;;;;;;43.53;26.30;;;;;;;1.91;68.36;102315.47;5006096;28;20033;-69
2022/03/10 07:10:32;;;;;;;51.13;27.58;;;;;;;1.98;68.46;102322.28;4996274;28;20395;-69
2022/03/10 07:12:57;;;;;;;52.95;27.25;;;;;;;2.04;67.80;102322.22;5002536;28;20038;-69
2022/03/10 07:15:22;;;;;;;44.67;26.52;;;;;;;2.09;68.19;102317.81;5006471;28;20112;-69
2022/03/10 07:17:48;;;;;;;48.90;26.98;;;;;;;2.17;67.72;102315.97;5001136;28;20432;-69
2022/03/10 07:20:14;;;;;;;48.45;27.38;;;;;;;2.25;68.12;102319.28;5003747;28;20037;-68
2022/03/10 07:22:40;;;;;;;46.42;27.58;;;;;;;2.32;67.91;102323.50;5012340;28;20030;-68
2022/03/10 07:25:05;;;;;;;47.55;26.67;;;;;;;2.40;68.12;102321.66;5011653;28;20014;-68
2022/03/10 07:27:31;;;;;;;51.13;27.67;;;;;;;2.47;67.56;102325.88;5012525;28;20108;-68
2022/03/10 07:29:56;;;;;;;46.95;28.65;;;;;;;2.58;67.40;102322.22;5012430;28;20144;-68
2022/03/10 07:32:24;;;;;;;46.13;27.38;;;;;;;2.65;67.14;102321.22;5010796;28;20381;-69
2022/03/10 07:34:50;;;;;;;47.55;26.80;;;;;;;2.73;67.13;102324.53;5012392;28;20152;-68
2022/03/10 07:37:15;;;;;;;47.42;27.10;;;;;;;2.84;67.23;102327.84;5011559;28;20140;-69
2022/03/10 07:39:41;;;;;;;49.08;27.30;;;;;;;2.93;66.84;102325.06;5006224;28;20479;-69
2022/03/10 07:42:06;;;;;;;48.13;27.08;;;;;;;3.04;66.93;102323.09;5011488;28;20042;-69
2022/03/10 07:44:31;;;;;;;50.72;27.23;;;;;;;3.17;65.77;102322.88;5011766;28;20437;-69
2022/03/10 07:46:57;;;;;;;51.70;28.33;;;;;;;3.27;65.66;102319.22;5014442;28;20482;-72
2022/03/10 07:49:22;;;;;;;48.45;26.92;;;;;;;3.35;64.99;102325.13;5006492;28;20025;-72
2022/03/10 07:51:47;;;;;;;44.92;25.50;;;;;;;3.47;65.62;102323.09;5012212;28;20034;-72
2022/03/10 07:54:13;;;;;;;45.00;26.50;;;;;;;3.60;65.21;102321.13;5007957;28;20073;-72
2022/03/10 07:56:38;;;;;;;49.45;26.92;;;;;;;3.68;64.21;102316.59;5009719;28;20108;-72
2022/03/10 07:59:04;;;;;;;45.55;25.10;;;;;;;3.84;64.24;102316.25;5009182;28;20041;-72
2022/03/10 08:01:31;;;;;;;49.60;26.48;;;;;;;3.97;63.86;102315.09;5011333;28;20478;-72
2022/03/10 08:03:56;;;;;;;43.38;26.05;;;;;;;4.08;63.32;102315.72;5009762;28;20132;-72
2022/03/10 08:06:22;;;;;;;48.17;26.90;;;;;;;4.20;63.03;102312.81;5008877;28;20124;-72
2022/03/10 08:08:48;;;;;;;46.17;26.80;;;;;;;4.38;62.34;102308.88;5010024;28;20030;-70
2022/03/10 08:11:13;;;;;;;46.17;25.73;;;;;;;4.45;62.03;102307.88;5005302;28;20449;-70
2022/03/10 08:13:38;;;;;;;45.00;24.98;;;;;;;4.61;61.22;102305.72;5007594;28;20040;-70
2022/03/10 08:16:04;;;;;;;44.22;25.08;;;;;;;4.73;61.25;102316.69;5008066;28;20026;-70
2022/03/10 08:18:30;;;;;;;42.70;25.55;;;;;;;4.86;61.22;102319.84;5013544;28;20040;-70
2022/03/10 08:20:59;;;;;;;45.33;24.77;;;;;;;5.00;60.55;102320.31;5011450;28;20083;-70
2022/03/10 08:23:26;;;;;;;42.55;25.25;;;;;;;5.11;60.89;102313.94;5011167;28;20116;-70
2022/03/10 08:25:51;;;;;;;43.72;24.58;;;;;;;5.23;59.43;102322.31;5010911;28;20367;-70
2022/03/10 08:28:17;;;;;;;41.72;24.85;;;;;;;5.37;59.32;102318.44;5008511;28;20033;-70
2022/03/10 08:30:42;;;;;;;45.53;25.88;;;;;;;5.49;59.39;102318.06;5010869;28;20029;-70
2022/03/10 08:33:07;;;;;;;42.30;24.00;;;;;;;5.59;59.22;102315.13;5008993;28;20759;-69
2022/03/10 08:35:33;;;;;;;44.35;25.30;;;;;;;5.73;58.17;102311.28;5010351;28;20034;-70
2022/03/10 08:37:58;;;;;;;43.75;25.55;;;;;;;5.87;57.36;102315.19;5009245;28;20085;-70
2022/03/10 08:40:24;;;;;;;46.30;25.90;;;;;;;5.98;56.47;102307.88;5007179;28;20022;-70
2022/03/10 08:42:50;;;;;;;42.45;25.40;;;;;;;6.10;57.77;102311.03;5008317;28;20030;-70
2022/03/10 08:45:16;;;;;;;46.13;26.40;;;;;;;6.24;56.01;102303.59;5007313;28;20389;-70
2022/03/10 08:47:42;;;;;;;42.72;25.42;;;;;;;6.38;55.02;102301.38;5009223;28;20021;-70
2022/03/10 08:50:10;;;;;;;40.65;23.98;;;;;;;6.51;56.33;102301.84;5008847;28;20087;-70
2022/03/10 08:52:36;;;;;;;43.10;24.58;;;;;;;6.65;54.65;102304.84;5009259;28;20030;-70
2022/03/10 08:55:03;;;;;;;42.20;25.48;;;;;;;6.75;55.48;102311.44;5009676;28;20115;-70
2022/03/10 08:57:28;;;;;;;41.47;24.95;;;;;;;6.88;55.43;102306.66;5009247;28;20026;-70
2022/03/10 08:59:54;;;;;;;41.17;24.33;;;;;;;7.00;55.15;102311.47;5009436;28;20036;-70
2022/03/10 09:02:19;;;;;;;43.42;24.83;;;;;;;7.14;54.54;102303.09;5008302;28;20309;-70
2022/03/10 09:04:44;;;;;;;38.55;24.35;;;;;;;7.22;54.18;102301.94;5008345;28;20410;-70
2022/03/10 09:07:11;;;;;;;41.78;24.73;;;;;;;7.33;54.44;102303.31;5008055;28;20022;-70
2022/03/10 09:09:39;;;;;;;42.50;25.38;;;;;;;7.44;54.73;102296.75;5008311;28;20025;-70
2022/03/10 09:12:05;;;;;;;43.28;24.70;;;;;;;7.59;53.11;102289.22;5006612;28;20032;-70
2022/03/10 09:14:31;;;;;;;41.00;24.42;;;;;;;7.72;53.97;102285.22;5009581;28;20104;-70
2022/03/10 09:16:57;;;;;;;40.67;23.00;;;;;;;7.82;54.27;102281.31;5006381;28;20456;-70
2022/03/10 09:19:23;;;;;;;42.00;24.58;;;;;;;7.98;52.64;102277.16;5009430;28;20038;-70
2022/03/10 09:21:48;;;;;;;46.58;24.23;;;;;;;8.12;52.22;102274.88;5009117;28;20030;-70
2022/03/10 09:24:13;;;;;;;41.28;25.02;;;;;;;8.23;52.56;102270.94;5006219;28;20057;-70
2022/03/10 09:26:39;;;;;;;39.45;23.63;;;;;;;8.38;52.51;102276.41;5007944;28;20422;-70
2022/03/10 09:29:05;;;;;;;41.55;23.55;;;;;;;8.51;52.03;102275.94;5006747;28;20045;-70
2022/03/10 09:31:31;;;;;;;38.75;23.27;;;;;;;8.60;51.62;102273.75;5005794;28;20030;-70
2022/03/10 09:33:57;;;;;;;36.85;23.35;;;;;;;8.72;51.74;102269.75;5013144;28;20599;-70
2022/03/10 09:36:22;;;;;;;40.42;23.88;;;;;;;8.83;50.88;102259.66;5008140;28;20037;-70
2022/03/10 09:38:48;;;;;;;38.83;23.38;;;;;;;8.93;50.90;102249.59;5005613;28;20025;-70
2022/03/10 09:41:14;;;;;;;40.88;24.48;;;;;;;9.07;51.24;102255.06;5006603;28;20091;-70
2022/03/10 09:43:39;;;;;;;40.65;23.13;;;;;;;9.17;50.51;102251.09;5007351;28;20022;-70
2022/03/10 09:46:08;;;;;;;41.15;24.00;;;;;;;9.32;49.61;102257.44;5008461;28;20041;-70
2022/03/10 09:48:35;;;;;;;36.33;23.33;;;;;;;9.40;50.58;102255.31;5003930;28;20056;-70
2022/03/10 09:51:04;;;;;;;38.70;22.52;;;;;;;9.53;50.06;102248.56;5009432;28;20037;-70
2022/03/10 09:53:31;;;;;;;34.20;22.63;;;;;;;9.65;50.51;102247.16;5008014;28;20030;-70
2022/03/10 09:55:57;;;;;;;39.92;23.58;;;;;;;9.73;50.86;102245.84;5005980;28;20608;-70
2022/03/10 09:58:26;;;;;;;35.92;22.38;;;;;;;9.84;50.21;102240.06;5007556;28;20022;-70
2022/03/10 10:01:09;;;;;;;35.78;22.45;;;;;;;9.94;50.95;102235.19;5004760;28;20037;-70
2022/03/10 10:03:34;;;;;;;38.35;23.42;;;;;;;10.12;50.41;102238.72;5008070;28;20018;-70
2022/03/10 10:06:03;;;;;;;35.67;22.33;;;;;;;10.24;49.95;102240.75;5006993;28;20049;-70
2022/03/10 10:08:34;;;;;;;33.35;22.15;;;;;;;10.36;50.03;102237.50;5008761;28;20026;-70
2022/03/10 10:11:03;;;;;;;36.40;22.33;;;;;;;10.47;48.98;102240.47;5007408;28;20029;-70
2022/03/10 10:13:34;;;;;;;33.05;21.42;;;;;;;10.59;50.39;102234.56;5003329;28;20474;-70
2022/03/10 10:16:07;;;;;;;39.15;23.23;;;;;;;10.72;49.13;102226.00;5007664;28;20040;-70
2022/03/10 10:18:34;;;;;;;37.10;23.23;;;;;;;10.83;48.95;102229.81;5007681;28;20492;-70
2022/03/10 10:21:03;;;;;;;37.97;23.00;;;;;;;10.95;49.11;102223.88;5007426;28;20394;-70
2022/03/10 10:23:31;;;;;;;33.13;21.48;;;;;;;11.13;49.72;102222.03;5008296;28;20029;-70
2022/03/10 10:25:58;;;;;;;35.53;22.08;;;;;;;11.21;47.81;102219.84;5007844;28;20022;-70
2022/03/10 10:28:27;;;;;;;34.45;22.13;;;;;;;11.39;47.58;102223.25;5006017;28;20026;-70
2022/03/10 10:31:15;;;;;;;30.17;20.88;;;;;;;11.49;48.64;102218.31;5005228;28;20041;-70
2022/03/10 10:33:43;;;;;;;34.60;21.02;;;;;;;11.72;47.47;102215.25;5007429;28;20109;-70
2022/03/10 10:36:12;;;;;;;33.63;22.13;;;;;;;11.84;46.27;102213.72;5006870;28;20045;-70
2022/03/10 10:38:38;;;;;;;34.40;21.38;;;;;;;12.01;45.97;102215.38;5008336;28;20025;-71
2022/03/10 10:41:28;;;;;;;35.65;22.27;;;;;;;12.10;47.29;102209.56;5008252;28;20823;-70
2022/03/10 10:43:58;;;;;;;37.63;22.33;;;;;;;12.25;45.44;102203.38;5006934;28;20498;-71
2022/03/10 10:46:29;;;;;;;35.20;22.50;;;;;;;12.45;46.23;102208.34;5007774;28;20538;-70
2022/03/10 10:48:56;;;;;;;34.75;20.92;;;;;;;12.61;45.39;102199.50;5006302;28;20179;-70
2022/03/10 10:51:33;;;;;;;33.40;20.65;;;;;;;12.78;45.53;102199.28;5008600;28;20037;-70
2022/03/10 10:54:02;;;;;;;32.13;20.27;;;;;;;12.88;45.45;102203.09;5008229;28;20482;-71
2022/03/10 10:56:33;;;;;;;31.52;20.48;;;;;;;13.02;44.06;102200.41;5006302;28;20437;-70
2022/03/10 10:59:00;;;;;;;30.98;19.65;;;;;;;13.16;44.46;102195.09;5007031;28;20448;-70
2022/03/10 11:01:39;;;;;;;33.88;21.00;;;;;;;13.34;45.17;102194.94;5005327;28;20554;-70
2022/03/10 11:04:05;;;;;;;30.52;20.10;;;;;;;13.55;43.71;102182.97;5006628;28;20021;-70
2022/03/10 11:06:34;;;;;;;34.35;20.30;;;;;;;13.77;44.09;102191.19;5008422;28;20385;-71
2022/03/10 11:09:00;;;;;;;31.75;20.10;;;;;;;13.92;44.02;102186.69;5005827;28;20018;-70
2022/03/10 11:11:26;;;;;;;31.10;19.33;;;;;;;13.99;42.43;102182.66;4995042;28;20080;-70
2022/03/10 11:13:51;;;;;;;34.35;19.80;;;;;;;14.08;42.27;102182.06;4993175;28;20041;-70
2022/03/10 11:16:18;;;;;;;32.38;19.85;;;;;;;14.26;42.32;102179.97;5008516;28;20026;-70
2022/03/10 11:18:49;;;;;;;29.30;19.70;;;;;;;14.41;41.88;102183.38;5000239;28;20034;-70